createdAt,value
2023-02-16T00:00:28.825Z,6.10
2023-02-16T00:02:56.794Z,6.10
2023-02-16T00:05:33.673Z,6.20
2023-02-16T00:08:01.589Z,6.20
2023-02-16T00:10:34.416Z,6.10
2023-02-16T00:13:20.862Z,6.10
2023-02-16T00:15:48.357Z,6.10
2023-02-16T00:18:21.217Z,6.20
2023-02-16T00:20:49.420Z,6.20
2023-02-16T00:23:16.865Z,6.20
2023-02-16T00:25:44.274Z,6.20
2023-02-16T00:28:17.780Z,6.10
2023-02-16T00:30:45.987Z,6.00
2023-02-16T00:33:16.889Z,6.00
2023-02-16T00:35:44.979Z,5.90
2023-02-16T00:38:13.545Z,5.90
2023-02-16T00:40:42.236Z,5.90
2023-02-16T00:43:29.143Z,5.90
2023-02-16T00:45:57.797Z,5.90
2023-02-16T00:48:25.252Z,5.80
2023-02-16T00:50:54.280Z,5.70
2023-02-16T00:53:21.687Z,5.70
2023-02-16T00:55:49.078Z,5.70
2023-02-16T00:58:26.690Z,5.70
2023-02-16T01:00:58.237Z,5.60
2023-02-16T01:03:27.741Z,5.50
2023-02-16T01:06:14.524Z,5.50
2023-02-16T01:09:01.589Z,5.50
2023-02-16T01:11:29.413Z,5.40
2023-02-16T01:13:57.494Z,5.30
2023-02-16T01:16:36.630Z,5.30
2023-02-16T01:19:04.777Z,5.30
2023-02-16T01:21:32.232Z,5.40
2023-02-16T01:24:02.274Z,5.30
2023-02-16T01:26:30.630Z,5.30
2023-02-16T01:28:58.075Z,5.30
2023-02-16T01:31:25.549Z,5.30
2023-02-16T01:33:53.069Z,5.40
2023-02-16T01:36:39.854Z,5.30
2023-02-16T01:39:07.868Z,5.30
2023-02-16T01:42:03.333Z,5.40
2023-02-16T01:44:49.796Z,5.30
2023-02-16T01:47:41.035Z,5.30
2023-02-16T01:50:20.976Z,5.30
2023-02-16T01:52:57.905Z,5.20
2023-02-16T01:55:47.060Z,5.10
2023-02-16T01:58:29.697Z,5.00
2023-02-16T02:00:57.115Z,5.00
2023-02-16T02:04:09.427Z,4.90
2023-02-16T02:06:37.639Z,4.80
2023-02-16T02:09:08.162Z,4.70
2023-02-16T02:11:55.930Z,4.70
2023-02-16T02:14:35.573Z,4.60
2023-02-16T02:17:11.408Z,4.60
2023-02-16T02:20:21.100Z,4.60
2023-02-16T02:23:25.661Z,4.60
2023-02-16T02:25:59.193Z,4.50
2023-02-16T02:28:49.960Z,4.50
2023-02-16T02:31:37.047Z,4.50
2023-02-16T02:34:26.033Z,4.40
2023-02-16T02:37:14.726Z,4.40
2023-02-16T02:40:01.079Z,4.40
2023-02-16T02:43:04.592Z,4.50
2023-02-16T02:45:38.680Z,4.60
2023-02-16T02:48:06.671Z,4.60
2023-02-16T02:50:41.616Z,4.50
2023-02-16T02:53:15.618Z,4.50
2023-02-16T02:56:07.595Z,4.50
2023-02-16T02:59:12.384Z,4.60
2023-02-16T03:01:44.061Z,4.60
2023-02-16T03:04:15.692Z,4.60
2023-02-16T03:06:47.636Z,4.50
2023-02-16T03:09:16.058Z,4.50
2023-02-16T03:12:04.139Z,4.60
2023-02-16T03:14:40.191Z,4.60
2023-02-16T03:17:35.563Z,4.70
2023-02-16T03:20:27.331Z,4.70
2023-02-16T03:23:14.730Z,4.70
2023-02-16T03:26:01.768Z,4.70
2023-02-16T03:28:49.948Z,4.70
2023-02-16T03:31:22.025Z,4.70
2023-02-16T03:33:54.910Z,4.60
2023-02-16T03:36:25.066Z,4.50
2023-02-16T03:38:54.318Z,4.50
2023-02-16T03:41:21.944Z,4.40
2023-02-16T03:43:49.394Z,4.50
2023-02-16T03:46:16.927Z,4.50
2023-02-16T03:48:44.452Z,4.40
2023-02-16T03:51:11.889Z,4.30
2023-02-16T03:53:39.298Z,4.30
2023-02-16T03:56:06.830Z,4.40
2023-02-16T03:58:34.672Z,4.30
2023-02-16T04:01:02.631Z,4.30
2023-02-16T04:03:30.342Z,4.30
2023-02-16T04:05:57.806Z,4.40
2023-02-16T04:08:25.262Z,4.50
2023-02-16T04:10:54.297Z,4.50
2023-02-16T04:13:21.704Z,4.50
2023-02-16T04:15:49.655Z,4.50
2023-02-16T04:18:17.171Z,4.40
2023-02-16T04:20:44.589Z,4.50
2023-02-16T04:23:12.379Z,4.50
2023-02-16T04:25:40.053Z,4.50
2023-02-16T04:28:07.452Z,4.50
2023-02-16T04:30:35.010Z,4.50
2023-02-16T04:33:02.519Z,4.40
2023-02-16T04:35:31.104Z,4.40
2023-02-16T04:37:58.562Z,4.40
2023-02-16T04:40:25.976Z,4.50
2023-02-16T04:42:53.399Z,4.50
2023-02-16T04:45:20.963Z,4.40
2023-02-16T04:47:48.373Z,4.40
2023-02-16T04:50:15.813Z,4.30
2023-02-16T04:52:43.322Z,4.40
2023-02-16T04:55:10.856Z,4.30
2023-02-16T04:57:39.709Z,4.40
2023-02-16T05:00:08.717Z,4.30
2023-02-16T05:02:36.134Z,4.30
2023-02-16T05:05:04.018Z,4.40
2023-02-16T05:07:31.440Z,4.40
2023-02-16T05:09:58.856Z,4.40
2023-02-16T05:12:44.874Z,4.40
2023-02-16T05:15:12.335Z,4.40
2023-02-16T05:17:39.694Z,4.40
2023-02-16T05:20:07.420Z,4.40
2023-02-16T05:22:35.579Z,4.30
2023-02-16T05:25:03.003Z,4.30
2023-02-16T05:27:31.317Z,4.20
2023-02-16T05:29:59.278Z,4.00
2023-02-16T05:32:27.127Z,3.90
2023-02-16T05:34:54.571Z,3.80
2023-02-16T05:37:21.982Z,3.80
2023-02-16T05:39:49.418Z,3.70
2023-02-16T05:42:16.837Z,3.60
2023-02-16T05:44:44.246Z,3.60
2023-02-16T05:47:11.719Z,3.50
2023-02-16T05:49:39.133Z,3.50
2023-02-16T05:52:06.521Z,3.50
2023-02-16T05:54:33.937Z,3.50
2023-02-16T05:57:01.383Z,3.50
2023-02-16T05:59:28.880Z,3.60
2023-02-16T06:01:56.349Z,3.60
2023-02-16T06:04:23.828Z,3.60
2023-02-16T06:06:51.280Z,3.60
2023-02-16T06:09:18.718Z,3.70
2023-02-16T06:11:46.360Z,3.70
2023-02-16T06:14:16.881Z,3.80
2023-02-16T06:16:47.265Z,3.80
2023-02-16T06:19:16.396Z,3.90
2023-02-16T06:21:44.348Z,3.90
2023-02-16T06:24:13.214Z,3.90
2023-02-16T06:26:41.387Z,3.80
2023-02-16T06:29:09.629Z,3.90
2023-02-16T06:31:37.954Z,3.90
2023-02-16T06:34:05.859Z,3.90
2023-02-16T06:36:33.322Z,4.00
2023-02-16T06:39:00.772Z,4.10
2023-02-16T06:41:43.027Z,4.10
2023-02-16T06:44:13.579Z,4.20
2023-02-16T06:46:42.824Z,4.30
2023-02-16T06:49:15.112Z,4.30
2023-02-16T06:51:42.386Z,4.40
2023-02-16T06:54:10.474Z,4.50
2023-02-16T06:56:38.157Z,4.60
2023-02-16T06:59:06.535Z,4.70
2023-02-16T07:01:34.047Z,5.00
2023-02-16T07:04:01.436Z,5.20
2023-02-16T07:06:30.876Z,5.40
2023-02-16T07:08:59.664Z,5.70
2023-02-16T07:11:27.133Z,6.00
2023-02-16T07:13:54.558Z,6.30
2023-02-16T07:16:22.040Z,6.50
2023-02-16T07:18:49.563Z,6.70
2023-02-16T07:21:17.238Z,6.90
2023-02-16T07:23:45.430Z,7.20
2023-02-16T07:26:13.016Z,7.50
2023-02-16T07:28:40.413Z,7.90
2023-02-16T07:31:13.575Z,8.10
2023-02-16T07:33:41.830Z,8.40
2023-02-16T07:36:10.937Z,8.50
2023-02-16T07:38:41.258Z,8.60
2023-02-16T07:41:09.890Z,8.70
2023-02-16T07:43:42.801Z,8.90
2023-02-16T07:46:10.680Z,9.10
2023-02-16T07:48:38.112Z,9.30
2023-02-16T07:51:06.113Z,9.50
2023-02-16T07:53:33.910Z,10.00
2023-02-16T07:56:01.455Z,10.50
2023-02-16T07:58:29.020Z,11.00
2023-02-16T08:01:05.851Z,11.30
2023-02-16T08:03:33.552Z,11.60
2023-02-16T08:06:01.986Z,12.20
2023-02-16T08:08:29.492Z,12.60
2023-02-16T08:10:56.940Z,13.00
2023-02-16T08:13:24.472Z,13.30
2023-02-16T08:15:51.891Z,13.30
2023-02-16T08:18:19.288Z,13.40
2023-02-16T08:21:02.799Z,13.40
2023-02-16T08:23:31.517Z,13.50
2023-02-16T08:25:59.399Z,13.60
2023-02-16T08:28:28.628Z,13.80
2023-02-16T08:30:57.214Z,13.60
2023-02-16T08:33:25.114Z,14.00
2023-02-16T08:35:53.135Z,14.30
2023-02-16T08:38:20.926Z,14.80
2023-02-16T08:40:51.464Z,14.80
2023-02-16T08:43:18.982Z,14.60
2023-02-16T08:45:47.821Z,14.40
2023-02-16T08:48:16.758Z,14.20
2023-02-16T08:50:53.507Z,14.10
2023-02-16T08:53:25.281Z,13.90
2023-02-16T08:55:55.726Z,13.80
2023-02-16T08:58:24.769Z,13.70
2023-02-16T09:00:52.614Z,13.70
2023-02-16T09:03:20.152Z,13.60
2023-02-16T09:05:48.896Z,13.70
2023-02-16T09:08:16.582Z,14.40
2023-02-16T09:10:44.192Z,14.90
2023-02-16T09:13:14.967Z,15.60
2023-02-16T09:15:47.382Z,15.70
2023-02-16T09:18:15.164Z,16.00
2023-02-16T09:20:46.411Z,16.00
2023-02-16T09:23:14.456Z,16.00
2023-02-16T09:25:42.094Z,15.60
2023-02-16T09:28:10.837Z,16.00
2023-02-16T09:30:39.522Z,16.10
2023-02-16T09:33:07.811Z,16.50
2023-02-16T09:35:35.286Z,16.50
2023-02-16T09:38:02.695Z,16.30
2023-02-16T09:40:30.576Z,15.80
2023-02-16T09:43:33.241Z,15.40
2023-02-16T09:46:02.614Z,15.50
2023-02-16T09:48:38.181Z,16.10
2023-02-16T09:51:09.101Z,16.80
2023-02-16T09:53:39.589Z,17.50
2023-02-16T09:56:22.742Z,17.60
2023-02-16T09:58:58.353Z,17.70
2023-02-16T10:01:31.794Z,17.40
2023-02-16T10:04:35.368Z,17.70
2023-02-16T10:07:17.198Z,18.00
2023-02-16T10:09:51.106Z,18.00
2023-02-16T10:12:27.144Z,18.10
2023-02-16T10:15:00.161Z,18.50
2023-02-16T10:17:38.456Z,19.00
2023-02-16T10:20:14.727Z,19.10
2023-02-16T10:22:49.855Z,19.10
2023-02-16T10:25:26.398Z,19.10
2023-02-16T10:28:23.045Z,18.90
2023-02-16T10:30:57.290Z,18.40
2023-02-16T10:33:39.537Z,18.20
2023-02-16T10:36:15.055Z,18.10
2023-02-16T10:38:56.461Z,18.40
2023-02-16T10:41:37.437Z,18.60
2023-02-16T10:44:21.653Z,18.10
2023-02-16T10:47:03.998Z,17.30
2023-02-16T10:49:32.871Z,16.90
2023-02-16T10:52:02.647Z,16.50
2023-02-16T10:54:32.327Z,16.20
2023-02-16T10:57:01.579Z,16.10
2023-02-16T10:59:43.764Z,16.00
2023-02-16T11:02:35.617Z,15.90
2023-02-16T11:05:23.238Z,15.20
2023-02-16T11:07:58.228Z,14.90
2023-02-16T11:10:51.832Z,14.70
2023-02-16T11:13:31.441Z,14.60
2023-02-16T11:16:05.271Z,14.50
2023-02-16T11:18:45.728Z,14.60
2023-02-16T11:21:13.392Z,14.70
2023-02-16T11:23:42.453Z,14.60
2023-02-16T11:26:12.661Z,14.60
2023-02-16T11:28:45.937Z,14.70
2023-02-16T11:31:22.406Z,14.60
2023-02-16T11:34:05.511Z,14.50
2023-02-16T11:36:40.874Z,14.50
2023-02-16T11:39:11.118Z,14.50
2023-02-16T11:41:45.052Z,14.40
2023-02-16T11:44:29.257Z,14.60
2023-02-16T11:46:59.442Z,14.60
2023-02-16T11:49:51.838Z,14.50
2023-02-16T11:52:29.429Z,14.50
2023-02-16T11:54:59.323Z,14.50
2023-02-16T11:57:33.085Z,14.30
2023-02-16T12:00:02.089Z,14.20
2023-02-16T12:03:00.703Z,14.10
2023-02-16T12:05:49.561Z,14.00
2023-02-16T12:08:23.102Z,13.80
2023-02-16T12:11:28.196Z,13.70
2023-02-16T12:14:32.414Z,13.70
2023-02-16T12:17:34.891Z,13.50
2023-02-16T12:20:32.361Z,13.60
2023-02-16T12:23:36.578Z,13.60
2023-02-16T12:26:33.157Z,13.70
2023-02-16T12:29:11.637Z,13.80
2023-02-16T12:32:06.880Z,13.80
2023-02-16T12:35:01.697Z,13.80
2023-02-16T12:37:48.299Z,13.70
2023-02-16T12:40:49.531Z,13.60
2023-02-16T12:43:39.790Z,13.60
2023-02-16T12:46:30.650Z,13.70
2023-02-16T12:49:15.418Z,13.90
2023-02-16T12:51:49.164Z,14.00
2023-02-16T12:54:40.923Z,14.00
2023-02-16T12:57:13.516Z,14.00
2023-02-16T13:00:02.420Z,13.90
2023-02-16T13:02:42.617Z,13.70
2023-02-16T13:05:33.070Z,13.80
2023-02-16T13:08:18.303Z,13.80
2023-02-16T13:11:03.412Z,13.80
2023-02-16T13:13:34.592Z,13.80
2023-02-16T13:16:30.063Z,13.80
2023-02-16T13:18:58.848Z,13.60
2023-02-16T13:21:52.150Z,13.80
2023-02-16T13:24:35.071Z,13.70
2023-02-16T13:27:40.857Z,13.60
2023-02-16T13:31:01.513Z,13.70
2023-02-16T13:33:47.607Z,13.80
2023-02-16T13:36:21.666Z,13.90
2023-02-16T13:39:19.527Z,14.10
2023-02-16T13:42:49.986Z,14.10
2023-02-16T13:45:26.196Z,13.80
2023-02-16T13:47:56.339Z,13.60
2023-02-16T13:50:25.901Z,13.60
2023-02-16T13:52:56.796Z,13.60
2023-02-16T13:55:32.762Z,13.60
2023-02-16T13:58:05.879Z,13.60
2023-02-16T14:00:39.377Z,13.60
2023-02-16T14:03:32.943Z,13.80
2023-02-16T14:06:32.868Z,13.80
2023-02-16T14:09:19.701Z,13.80
2023-02-16T14:11:59.577Z,13.80
2023-02-16T14:14:53.932Z,13.80
2023-02-16T14:17:25.107Z,13.80
2023-02-16T14:20:19.349Z,13.80
2023-02-16T14:23:00.243Z,13.60
2023-02-16T14:25:29.155Z,13.60
2023-02-16T14:28:00.429Z,13.50
2023-02-16T14:31:10.110Z,13.40
2023-02-16T14:34:05.833Z,13.40
2023-02-16T14:36:34.097Z,13.30
2023-02-16T14:39:02.200Z,13.30
2023-02-16T14:41:33.613Z,13.30
2023-02-16T14:44:57.633Z,13.30
2023-02-16T14:47:54.732Z,13.30
2023-02-16T14:50:31.538Z,13.30
2023-02-16T14:53:29.631Z,13.20
2023-02-16T14:56:20.992Z,13.10
2023-02-16T14:59:17.060Z,13.20
2023-02-16T15:01:47.117Z,13.20
2023-02-16T15:04:36.697Z,13.20
2023-02-16T15:07:05.844Z,13.10
2023-02-16T15:09:35.050Z,13.00
2023-02-16T15:12:23.615Z,13.10
2023-02-16T15:14:58.607Z,13.00
2023-02-16T15:17:31.464Z,12.90
2023-02-16T15:20:10.933Z,12.90
2023-02-16T15:22:44.386Z,12.90
2023-02-16T15:25:38.514Z,12.90
2023-02-16T15:28:12.386Z,12.90
2023-02-16T15:30:46.171Z,12.80
2023-02-16T15:33:25.787Z,12.80
2023-02-16T15:35:57.010Z,12.80
2023-02-16T15:38:31.985Z,12.70
2023-02-16T15:41:03.109Z,12.70
2023-02-16T15:43:52.314Z,12.70
2023-02-16T15:46:29.039Z,12.60
2023-02-16T15:48:57.194Z,12.60
2023-02-16T15:51:34.718Z,12.50
2023-02-16T15:54:28.119Z,12.50
2023-02-16T15:56:58.601Z,12.40
2023-02-16T15:59:35.920Z,12.30
2023-02-16T16:02:19.582Z,12.20
2023-02-16T16:04:55.349Z,12.10
2023-02-16T16:07:31.686Z,12.10
2023-02-16T16:10:00.432Z,12.00
2023-02-16T16:12:29.282Z,11.80
2023-02-16T16:15:03.127Z,11.70
2023-02-16T16:17:36.201Z,11.60
2023-02-16T16:20:36.077Z,11.50
2023-02-16T16:23:05.792Z,11.40
2023-02-16T16:25:44.912Z,11.30
2023-02-16T16:28:34.291Z,11.20
2023-02-16T16:31:10.982Z,11.10
2023-02-16T16:34:00.282Z,11.00
2023-02-16T16:36:34.865Z,10.90
2023-02-16T16:39:35.585Z,10.80
2023-02-16T16:42:53.198Z,10.70
2023-02-16T16:45:58.753Z,10.60
2023-02-16T16:48:34.706Z,10.40
2023-02-16T16:51:13.349Z,10.30
2023-02-16T16:53:59.953Z,10.30
2023-02-16T16:56:29.230Z,10.20
2023-02-16T16:58:58.821Z,10.10
2023-02-16T17:01:28.491Z,10.10
2023-02-16T17:03:56.863Z,10.00
2023-02-16T17:06:25.537Z,10.00
2023-02-16T17:08:55.238Z,9.90
2023-02-16T17:11:25.169Z,9.80
2023-02-16T17:13:55.099Z,9.80
2023-02-16T17:16:33.659Z,9.70
2023-02-16T17:19:04.672Z,9.70
2023-02-16T17:21:34.101Z,9.60
2023-02-16T17:24:02.355Z,9.50
2023-02-16T17:26:30.259Z,9.50
2023-02-16T17:28:58.255Z,9.50
2023-02-16T17:31:34.806Z,9.40
2023-02-16T17:34:13.332Z,9.40
2023-02-16T17:36:43.068Z,9.40
2023-02-16T17:39:10.922Z,9.40
2023-02-16T17:41:38.652Z,9.30
2023-02-16T17:44:09.665Z,9.20
2023-02-16T17:46:37.487Z,9.10
2023-02-16T17:49:05.320Z,9.10
2023-02-16T17:51:36.362Z,9.10
2023-02-16T17:54:06.606Z,9.10
2023-02-16T17:56:35.436Z,9.00
2023-02-16T17:59:03.600Z,9.00
2023-02-16T18:01:33.052Z,9.00
2023-02-16T18:04:04.595Z,9.00
2023-02-16T18:06:34.908Z,9.00
2023-02-16T18:09:04.982Z,9.10
2023-02-16T18:11:35.713Z,9.10
2023-02-16T18:14:03.883Z,9.00
2023-02-16T18:16:31.771Z,8.90
2023-02-16T18:19:00.059Z,8.90
2023-02-16T18:21:28.112Z,8.80
2023-02-16T18:23:55.952Z,8.80
2023-02-16T18:26:23.959Z,8.70
2023-02-16T18:28:51.757Z,8.70
2023-02-16T18:31:20.742Z,8.70
2023-02-16T18:33:49.079Z,8.60
2023-02-16T18:36:17.664Z,8.60
2023-02-16T18:38:45.588Z,8.60
2023-02-16T18:41:15.439Z,8.50
2023-02-16T18:43:43.355Z,8.60
2023-02-16T18:46:11.401Z,8.50
2023-02-16T18:48:39.353Z,8.40
2023-02-16T18:51:08.394Z,8.40
2023-02-16T18:53:39.382Z,8.30
2023-02-16T18:56:12.431Z,8.20
2023-02-16T18:58:40.580Z,8.20
2023-02-16T19:01:32.636Z,8.30
2023-02-16T19:04:01.436Z,8.20
2023-02-16T19:06:30.061Z,8.30
2023-02-16T19:09:00.493Z,8.30
2023-02-16T19:11:31.016Z,8.40
2023-02-16T19:13:58.889Z,8.20
2023-02-16T19:16:26.645Z,8.10
2023-02-16T19:18:54.814Z,8.00
2023-02-16T19:21:22.360Z,8.00
2023-02-16T19:23:53.142Z,8.00
2023-02-16T19:26:20.964Z,8.10
2023-02-16T19:28:49.073Z,8.10
2023-02-16T19:31:25.904Z,8.10
2023-02-16T19:33:54.849Z,8.10
2023-02-16T19:36:23.482Z,8.10
2023-02-16T19:38:51.470Z,8.10
2023-02-16T19:41:40.184Z,8.00
2023-02-16T19:44:08.029Z,7.90
2023-02-16T19:46:35.904Z,7.90
2023-02-16T19:49:04.445Z,7.90
2023-02-16T19:51:32.925Z,7.90
2023-02-16T19:54:10.456Z,7.90
2023-02-16T19:56:40.579Z,7.80
2023-02-16T19:59:15.461Z,7.70
2023-02-16T20:02:24.551Z,7.70
2023-02-16T20:04:57.118Z,7.70
2023-02-16T20:07:24.556Z,7.60
2023-02-16T20:09:52.310Z,7.70
2023-02-16T20:12:21.087Z,7.60
2023-02-16T20:14:48.752Z,7.60
2023-02-16T20:17:21.636Z,7.50
2023-02-16T20:19:56.149Z,7.50
2023-02-16T20:22:24.172Z,7.50
2023-02-16T20:24:51.748Z,7.40
2023-02-16T20:27:19.585Z,7.40
2023-02-16T20:29:47.539Z,7.30
2023-02-16T20:32:15.768Z,7.20
2023-02-16T20:34:43.777Z,7.20
2023-02-16T20:37:11.589Z,7.10
2023-02-16T20:39:39.620Z,7.00
2023-02-16T20:42:08.411Z,7.00
2023-02-16T20:44:36.405Z,6.90
2023-02-16T20:47:04.457Z,7.00
2023-02-16T20:49:34.193Z,7.00
2023-02-16T20:52:04.152Z,7.00
2023-02-16T20:54:31.817Z,7.00
2023-02-16T20:56:59.706Z,7.00
2023-02-16T20:59:30.838Z,7.10
2023-02-16T21:01:59.462Z,7.20
2023-02-16T21:04:36.193Z,7.10
2023-02-16T21:07:05.425Z,7.10
2023-02-16T21:09:33.465Z,7.20
2023-02-16T21:12:01.513Z,7.10
2023-02-16T21:14:32.041Z,7.10
2023-02-16T21:17:02.517Z,7.20
2023-02-16T21:19:30.748Z,7.10
2023-02-16T21:22:01.553Z,7.10
2023-02-16T21:24:32.442Z,7.10
2023-02-16T21:27:00.322Z,7.10
2023-02-16T21:29:28.323Z,7.10
2023-02-16T21:32:01.961Z,7.10
2023-02-16T21:34:30.360Z,7.10
2023-02-16T21:36:59.172Z,7.00
2023-02-16T21:39:46.121Z,7.00
2023-02-16T21:42:13.957Z,6.90
2023-02-16T21:44:44.368Z,6.90
2023-02-16T21:47:32.350Z,6.80
2023-02-16T21:50:00.239Z,6.80
2023-02-16T21:52:31.080Z,6.70
2023-02-16T21:55:20.389Z,6.70
2023-02-16T21:57:48.713Z,6.70
2023-02-16T22:00:17.033Z,6.70
2023-02-16T22:02:45.057Z,6.70
2023-02-16T22:05:16.102Z,6.70
2023-02-16T22:07:44.649Z,6.70
2023-02-16T22:10:12.386Z,6.70
2023-02-16T22:12:40.874Z,6.70
2023-02-16T22:15:08.879Z,6.70
2023-02-16T22:17:36.681Z,6.80
2023-02-16T22:20:07.752Z,6.80
2023-02-16T22:22:35.834Z,6.90
2023-02-16T22:25:03.910Z,7.00
2023-02-16T22:27:31.943Z,6.90
2023-02-16T22:29:59.992Z,6.90
2023-02-16T22:32:27.923Z,7.00
2023-02-16T22:34:55.847Z,6.90
2023-02-16T22:37:27.840Z,6.90
2023-02-16T22:39:55.765Z,6.80
2023-02-16T22:42:24.060Z,6.80
2023-02-16T22:44:52.098Z,6.80
2023-02-16T22:47:22.615Z,6.80
2023-02-16T22:49:50.428Z,6.80
2023-02-16T22:52:21.125Z,6.80
2023-02-16T22:54:54.072Z,6.80
2023-02-16T22:57:37.817Z,6.70
2023-02-16T23:00:15.039Z,6.60
2023-02-16T23:02:49.773Z,6.60
2023-02-16T23:05:33.862Z,6.60
2023-02-16T23:08:22.242Z,6.70
2023-02-16T23:11:02.681Z,6.70
2023-02-16T23:13:33.583Z,6.80
2023-02-16T23:16:22.904Z,6.80
2023-02-16T23:18:53.891Z,6.80
2023-02-16T23:22:00.983Z,6.70
2023-02-16T23:24:50.789Z,6.60
2023-02-16T23:27:20.304Z,6.50
2023-02-16T23:29:49.564Z,6.60
2023-02-16T23:32:17.945Z,6.50
2023-02-16T23:34:48.543Z,6.50
2023-02-16T23:37:22.280Z,6.50
2023-02-16T23:39:50.450Z,6.50
2023-02-16T23:42:18.916Z,6.50
2023-02-16T23:44:49.924Z,6.50
2023-02-16T23:47:18.308Z,6.40
2023-02-16T23:49:46.361Z,6.50
2023-02-16T23:52:14.541Z,6.50
2023-02-16T23:54:42.464Z,6.60
2023-02-16T23:57:11.454Z,6.60
2023-02-16T23:59:39.617Z,6.50
